createdAt,value
2022-11-16T00:01:26.991Z,78.70
2022-11-16T00:03:54.914Z,78.60
2022-11-16T00:06:22.470Z,78.60
2022-11-16T00:09:10.498Z,78.80
2022-11-16T00:11:37.843Z,78.80
2022-11-16T00:14:05.252Z,78.80
2022-11-16T00:16:32.459Z,78.90
2022-11-16T00:19:00.810Z,78.80
2022-11-16T00:21:31.649Z,78.90
2022-11-16T00:23:58.632Z,79.00
2022-11-16T00:26:25.559Z,79.00
2022-11-16T00:28:53.715Z,79.00
2022-11-16T00:31:20.985Z,79.00
2022-11-16T00:33:48.362Z,79.10
2022-11-16T00:36:15.498Z,79.10
2022-11-16T00:38:42.498Z,79.10
2022-11-16T00:41:09.297Z,79.20
2022-11-16T00:43:36.705Z,79.20
2022-11-16T00:46:03.804Z,79.30
2022-11-16T00:48:30.950Z,79.30
2022-11-16T00:50:57.812Z,79.20
2022-11-16T00:53:24.599Z,79.20
2022-11-16T00:55:51.343Z,79.30
2022-11-16T00:58:20.243Z,79.30
2022-11-16T01:00:52.197Z,79.40
2022-11-16T01:03:19.039Z,79.50
2022-11-16T01:05:46.135Z,79.50
2022-11-16T01:08:14.454Z,79.60
2022-11-16T01:10:41.550Z,79.70
2022-11-16T01:13:10.839Z,79.70
2022-11-16T01:15:37.708Z,79.60
2022-11-16T01:18:04.549Z,79.60
2022-11-16T01:20:31.309Z,79.70
2022-11-16T01:22:58.250Z,79.70
2022-11-16T01:25:24.996Z,79.60
2022-11-16T01:27:51.786Z,79.70
2022-11-16T01:30:34.179Z,79.70
2022-11-16T01:33:05.487Z,79.80
2022-11-16T01:35:32.484Z,79.80
2022-11-16T01:37:59.753Z,79.80
2022-11-16T01:40:27.189Z,79.90
2022-11-16T01:42:53.987Z,80.00
2022-11-16T01:45:30.121Z,79.60
2022-11-16T01:47:58.571Z,80.20
2022-11-16T01:50:30.325Z,80.10
2022-11-16T01:52:59.372Z,80.10
2022-11-16T01:55:31.843Z,80.10
2022-11-16T01:58:15.171Z,80.20
2022-11-16T02:00:42.463Z,80.20
2022-11-16T02:03:28.803Z,80.10
2022-11-16T02:06:02.484Z,80.40
2022-11-16T02:09:09.129Z,80.50
2022-11-16T02:11:58.391Z,80.70
2022-11-16T02:17:21.343Z,80.60
2022-11-16T02:19:49.336Z,80.50
2022-11-16T02:22:19.317Z,80.60
2022-11-16T02:25:05.003Z,80.20
2022-11-16T02:27:43.955Z,80.60
2022-11-16T02:30:10.941Z,80.70
2022-11-16T02:32:51.215Z,80.50
2022-11-16T02:35:27.308Z,80.40
2022-11-16T02:37:59.036Z,80.40
2022-11-16T02:40:30.728Z,80.20
2022-11-16T02:43:00.512Z,80.40
2022-11-16T02:45:29.881Z,80.40
2022-11-16T02:48:01.003Z,80.40
2022-11-16T02:50:29.713Z,80.40
2022-11-16T02:52:56.929Z,80.40
2022-11-16T02:55:27.247Z,80.80
2022-11-16T02:57:57.282Z,81.10
2022-11-16T03:00:48.028Z,81.60
2022-11-16T03:03:35.361Z,81.70
2022-11-16T03:06:04.875Z,81.50
2022-11-16T03:08:35.234Z,81.80
2022-11-16T03:11:25.196Z,82.00
2022-11-16T03:14:08.071Z,82.30
2022-11-16T03:16:36.818Z,82.70
2022-11-16T03:19:05.948Z,83.10
2022-11-16T03:22:01.996Z,83.20
2022-11-16T03:24:29.892Z,83.50
2022-11-16T03:27:01.853Z,83.30
2022-11-16T03:29:41.255Z,83.30
2022-11-16T03:32:18.752Z,83.10
2022-11-16T03:34:51.261Z,83.50
2022-11-16T03:37:19.026Z,83.60
2022-11-16T03:39:45.791Z,83.80
2022-11-16T03:42:14.418Z,83.90
2022-11-16T03:44:43.737Z,84.20
2022-11-16T03:47:11.633Z,84.60
2022-11-16T03:49:38.490Z,85.00
2022-11-16T03:52:05.455Z,85.30
2022-11-16T03:54:33.466Z,85.40
2022-11-16T03:57:01.178Z,85.60
2022-11-16T03:59:27.947Z,85.40
2022-11-16T04:01:54.748Z,85.30
2022-11-16T04:04:40.210Z,84.90
2022-11-16T04:07:27.464Z,85.20
2022-11-16T04:10:12.995Z,85.50
2022-11-16T04:13:02.139Z,85.80
2022-11-16T04:15:47.541Z,85.80
2022-11-16T04:18:33.364Z,85.90
2022-11-16T04:21:18.927Z,85.70
2022-11-16T04:24:04.975Z,85.50
2022-11-16T04:26:55.078Z,86.20
2022-11-16T04:29:22.119Z,85.30
2022-11-16T04:32:07.304Z,85.40
2022-11-16T04:34:53.088Z,85.40
2022-11-16T04:37:39.285Z,85.40
2022-11-16T04:40:06.535Z,85.50
2022-11-16T04:42:33.422Z,85.60
2022-11-16T04:45:19.076Z,85.70
2022-11-16T04:47:50.198Z,85.80
2022-11-16T04:50:19.251Z,85.90
2022-11-16T04:52:46.462Z,86.10
2022-11-16T04:55:14.969Z,86.40
2022-11-16T04:57:43.534Z,86.70
2022-11-16T05:00:13.031Z,86.80
2022-11-16T05:02:40.286Z,86.90
2022-11-16T05:05:07.264Z,87.30
2022-11-16T05:07:35.347Z,87.60
2022-11-16T05:10:09.678Z,87.80
2022-11-16T05:12:36.602Z,87.90
2022-11-16T05:15:05.838Z,87.80
2022-11-16T05:17:33.564Z,88.10
2022-11-16T05:20:20.499Z,88.20
2022-11-16T05:22:56.293Z,88.10
2022-11-16T05:25:25.735Z,88.20
2022-11-16T05:27:53.603Z,88.20
2022-11-16T05:30:20.508Z,88.20
2022-11-16T05:32:47.318Z,88.20
2022-11-16T05:35:15.807Z,88.30
2022-11-16T05:37:43.267Z,88.60
2022-11-16T05:40:10.565Z,88.80
2022-11-16T05:42:46.239Z,89.00
2022-11-16T05:45:17.144Z,89.20
2022-11-16T05:47:46.646Z,89.10
2022-11-16T05:50:13.439Z,89.50
2022-11-16T05:52:41.738Z,89.70
2022-11-16T05:55:12.632Z,89.90
2022-11-16T05:57:42.713Z,90.00
2022-11-16T06:00:10.868Z,90.10
2022-11-16T06:02:48.396Z,89.90
2022-11-16T06:05:22.093Z,90.00
2022-11-16T06:07:49.106Z,90.00
2022-11-16T06:10:15.935Z,90.10
2022-11-16T06:12:44.950Z,90.20
2022-11-16T06:15:12.430Z,90.10
2022-11-16T06:17:39.832Z,90.20
2022-11-16T06:20:07.882Z,90.30
2022-11-16T06:22:34.638Z,90.30
2022-11-16T06:25:01.419Z,90.40
2022-11-16T06:27:28.330Z,90.40
2022-11-16T06:29:55.343Z,90.60
2022-11-16T06:32:22.230Z,90.60
2022-11-16T06:34:49.054Z,90.70
2022-11-16T06:37:15.908Z,90.70
2022-11-16T06:40:07.731Z,91.20
2022-11-16T06:42:38.589Z,91.60
2022-11-16T06:45:09.164Z,91.90
2022-11-16T06:47:40.084Z,92.10
2022-11-16T06:50:07.462Z,91.90
2022-11-16T06:52:34.596Z,91.60
2022-11-16T06:55:01.485Z,91.40
2022-11-16T06:57:35.520Z,91.20
2022-11-16T07:00:05.282Z,91.20
2022-11-16T07:02:36.585Z,91.20
2022-11-16T07:05:04.598Z,91.30
2022-11-16T07:07:32.980Z,91.30
2022-11-16T07:09:59.849Z,91.20
2022-11-16T07:12:27.298Z,91.20
2022-11-16T07:14:56.690Z,91.30
2022-11-16T07:17:24.606Z,91.30
2022-11-16T07:19:52.541Z,91.30
2022-11-16T07:22:19.548Z,91.30
2022-11-16T07:24:47.604Z,91.20
2022-11-16T07:27:14.396Z,91.30
2022-11-16T07:29:44.982Z,91.40
2022-11-16T07:32:22.877Z,91.30
2022-11-16T07:35:00.842Z,91.30
2022-11-16T07:37:28.408Z,91.20
2022-11-16T07:39:55.252Z,91.20
2022-11-16T07:42:23.455Z,91.20
2022-11-16T07:45:20.001Z,91.20
2022-11-16T07:47:53.448Z,91.00
2022-11-16T07:50:45.965Z,91.20
2022-11-16T07:53:12.786Z,91.20
2022-11-16T07:55:39.908Z,91.30
2022-11-16T07:58:07.795Z,91.30
2022-11-16T08:00:34.950Z,91.50
2022-11-16T08:03:11.323Z,91.50
2022-11-16T08:05:38.258Z,91.60
2022-11-16T08:08:06.037Z,91.60
2022-11-16T08:10:35.660Z,91.60
2022-11-16T08:13:03.559Z,91.60
2022-11-16T08:15:30.368Z,91.50
2022-11-16T08:17:59.686Z,91.60
2022-11-16T08:20:28.827Z,91.70
2022-11-16T08:22:58.964Z,91.90
2022-11-16T08:25:25.926Z,91.90
2022-11-16T08:27:52.702Z,91.90
2022-11-16T08:30:20.801Z,91.90
2022-11-16T08:32:48.573Z,91.90
2022-11-16T08:35:16.677Z,91.80
2022-11-16T08:37:44.935Z,91.70
2022-11-16T08:40:11.991Z,91.80
2022-11-16T08:42:43.712Z,91.80
2022-11-16T08:45:11.770Z,91.80
2022-11-16T08:47:38.805Z,91.80
2022-11-16T08:50:08.099Z,91.70
2022-11-16T08:52:35.229Z,91.80
2022-11-16T08:55:03.675Z,91.80
2022-11-16T08:57:30.746Z,91.90
2022-11-16T09:00:00.354Z,91.90
2022-11-16T09:02:27.278Z,91.70
2022-11-16T09:04:54.691Z,91.60
2022-11-16T09:07:24.771Z,91.70
2022-11-16T09:09:51.936Z,91.70
2022-11-16T09:12:19.125Z,91.80
2022-11-16T09:14:46.058Z,91.90
2022-11-16T09:17:20.307Z,92.00
2022-11-16T09:19:55.165Z,92.00
2022-11-16T09:22:22.052Z,92.20
2022-11-16T09:24:52.157Z,92.20
2022-11-16T09:27:19.467Z,92.40
2022-11-16T09:29:47.885Z,92.40
2022-11-16T09:32:15.200Z,92.60
2022-11-16T09:34:44.849Z,92.50
2022-11-16T09:37:12.202Z,92.50
2022-11-16T09:39:41.502Z,92.70
2022-11-16T09:42:20.224Z,92.80
2022-11-16T09:44:53.075Z,93.10
2022-11-16T09:47:23.025Z,92.80
2022-11-16T09:49:56.998Z,92.80
2022-11-16T09:52:32.582Z,92.80
2022-11-16T09:55:01.403Z,92.70
2022-11-16T09:57:31.552Z,92.50
2022-11-16T10:00:01.105Z,92.60
2022-11-16T10:02:30.761Z,92.60
2022-11-16T10:05:13.179Z,92.70
2022-11-16T10:07:43.331Z,92.60
2022-11-16T10:10:18.682Z,92.60
2022-11-16T10:13:07.211Z,92.70
2022-11-16T10:15:40.231Z,92.90
2022-11-16T10:18:20.564Z,93.20
2022-11-16T10:20:59.585Z,92.70
2022-11-16T10:23:26.515Z,92.70
2022-11-16T10:25:55.637Z,92.70
2022-11-16T10:28:28.613Z,92.70
2022-11-16T10:31:03.101Z,92.80
2022-11-16T10:33:36.142Z,92.80
2022-11-16T10:36:11.500Z,92.80
2022-11-16T10:38:39.305Z,93.00
2022-11-16T10:41:16.739Z,92.90
2022-11-16T10:43:45.083Z,92.90
2022-11-16T10:46:16.567Z,93.00
2022-11-16T10:48:50.791Z,93.00
2022-11-16T10:51:17.823Z,93.50
2022-11-16T13:28:22.112Z,94.40
2022-11-16T13:30:49.401Z,94.40
2022-11-16T13:33:21.750Z,94.40
2022-11-16T13:35:55.756Z,94.40
2022-11-16T13:38:49.020Z,94.30
2022-11-16T13:41:26.277Z,94.00
2022-11-16T13:43:58.573Z,94.10
2022-11-16T13:46:55.202Z,94.10
2022-11-16T13:49:49.707Z,94.10
2022-11-16T13:52:23.829Z,94.10
2022-11-16T13:54:57.267Z,94.20
2022-11-16T13:57:29.610Z,94.30
2022-11-16T14:00:09.423Z,94.40
2022-11-16T14:02:43.000Z,94.40
2022-11-16T14:05:12.614Z,94.30
2022-11-16T14:07:42.984Z,94.40
2022-11-16T14:10:11.033Z,94.40
2022-11-16T14:12:38.642Z,94.50
2022-11-16T14:15:16.674Z,94.30
2022-11-16T14:17:50.371Z,94.30
2022-11-16T14:20:27.140Z,94.40
2022-11-16T14:23:18.125Z,94.30
2022-11-16T14:25:50.410Z,94.30
2022-11-16T14:28:38.938Z,94.30
2022-11-16T14:31:05.923Z,94.30
2022-11-16T14:33:34.420Z,94.30
2022-11-16T14:36:03.499Z,94.30
2022-11-16T14:38:32.811Z,94.30
2022-11-16T14:41:00.958Z,94.30
2022-11-16T14:43:41.564Z,94.30
2022-11-16T14:46:13.922Z,94.40
2022-11-16T14:48:45.069Z,94.40
2022-11-16T14:51:21.212Z,94.50
2022-11-16T14:53:56.768Z,94.60
2022-11-16T14:56:23.588Z,94.70
2022-11-16T14:59:00.290Z,94.70
2022-11-16T15:01:32.780Z,94.70
2022-11-16T15:04:05.075Z,94.70
2022-11-16T15:06:50.932Z,94.70
2022-11-16T15:09:45.168Z,94.80
2022-11-16T15:12:51.086Z,94.80
2022-11-16T15:18:58.059Z,94.80
2022-11-16T15:21:59.715Z,94.70
2022-11-16T15:24:35.856Z,94.80
2022-11-16T15:27:10.566Z,95.00
2022-11-16T15:29:37.467Z,95.10
2022-11-16T15:32:04.549Z,95.30
2022-11-16T15:34:32.139Z,95.30
2022-11-16T15:37:16.139Z,95.40
2022-11-16T15:39:43.264Z,95.40
2022-11-16T15:42:19.720Z,95.40
2022-11-16T15:44:49.777Z,95.40
2022-11-16T15:47:16.980Z,95.30
2022-11-16T15:49:49.798Z,95.30
2022-11-16T15:52:37.808Z,95.40
2022-11-16T15:55:04.947Z,95.30
2022-11-16T15:57:31.800Z,95.30
2022-11-16T15:59:59.061Z,95.30
2022-11-16T16:02:29.820Z,95.30
2022-11-16T16:04:58.491Z,95.40
2022-11-16T16:07:54.956Z,95.40
2022-11-16T16:10:23.766Z,95.40
2022-11-16T16:12:54.864Z,95.40
2022-11-16T16:15:23.951Z,95.40
2022-11-16T16:17:51.897Z,95.30
2022-11-16T16:20:20.323Z,95.30
2022-11-16T16:22:50.194Z,95.20
2022-11-16T16:25:28.939Z,95.20
2022-11-16T16:28:05.092Z,95.10
2022-11-16T16:30:33.144Z,95.20
2022-11-16T16:33:00.111Z,95.20
2022-11-16T16:35:27.330Z,95.50
2022-11-16T16:37:58.966Z,95.20
2022-11-16T16:40:26.425Z,95.30
2022-11-16T16:42:55.022Z,95.40
2022-11-16T16:45:26.161Z,95.30
2022-11-16T16:47:53.161Z,95.50
2022-11-16T16:50:20.027Z,95.50
2022-11-16T16:52:47.066Z,95.60
2022-11-16T16:55:16.623Z,95.60
2022-11-16T16:57:43.522Z,95.50
2022-11-16T17:00:11.342Z,95.50
2022-11-16T17:02:38.317Z,95.50
2022-11-16T17:05:05.799Z,95.60
2022-11-16T17:07:32.883Z,95.50
2022-11-16T17:09:59.828Z,95.60
2022-11-16T17:12:26.683Z,95.60
2022-11-16T17:14:53.618Z,95.60
2022-11-16T17:17:21.346Z,95.60
2022-11-16T17:19:48.149Z,95.60
2022-11-16T17:22:15.149Z,95.70
2022-11-16T17:24:41.999Z,95.50
2022-11-16T17:27:08.899Z,95.50
2022-11-16T17:29:36.165Z,95.60
2022-11-16T17:32:04.690Z,95.60
2022-11-16T17:34:35.622Z,95.70
2022-11-16T17:37:02.582Z,95.60
2022-11-16T17:39:29.368Z,95.70
2022-11-16T17:41:57.456Z,95.70
2022-11-16T17:44:26.579Z,95.70
2022-11-16T17:46:54.690Z,95.70
2022-11-16T17:49:21.632Z,95.70
2022-11-16T17:51:48.675Z,95.80
2022-11-16T17:54:15.441Z,95.80
2022-11-16T17:56:48.955Z,95.80
2022-11-16T17:59:15.698Z,95.60
2022-11-16T18:01:44.996Z,95.60
2022-11-16T18:04:11.824Z,95.60
2022-11-16T18:06:40.768Z,95.50
2022-11-16T18:09:07.763Z,95.60
2022-11-16T18:11:35.004Z,95.40
2022-11-16T18:14:04.769Z,95.50
2022-11-16T18:16:32.756Z,95.50
2022-11-16T18:19:01.070Z,95.60
2022-11-16T18:21:27.929Z,95.40
2022-11-16T18:23:54.734Z,95.50
2022-11-16T18:26:22.714Z,95.50
2022-11-16T18:28:50.207Z,95.50
2022-11-16T18:31:18.485Z,95.40
2022-11-16T18:33:45.528Z,95.40
2022-11-16T18:36:12.889Z,95.50
2022-11-16T18:38:39.711Z,95.50
2022-11-16T18:41:06.529Z,95.40
2022-11-16T18:43:34.866Z,95.50
2022-11-16T18:46:01.962Z,95.50
2022-11-16T18:48:31.864Z,95.60
2022-11-16T18:50:59.709Z,95.60
2022-11-16T18:53:27.197Z,95.60
2022-11-16T18:55:57.896Z,95.50
2022-11-16T18:58:49.253Z,95.40
2022-11-16T19:01:14.187Z,95.60
2022-11-16T19:03:41.254Z,95.40
2022-11-16T19:06:09.236Z,95.40
2022-11-16T19:08:40.496Z,95.40
2022-11-16T19:11:09.443Z,95.50
2022-11-16T19:13:36.788Z,95.60
2022-11-16T19:16:04.095Z,95.70
2022-11-16T19:18:31.246Z,95.70
2022-11-16T19:21:11.554Z,95.70
2022-11-16T19:23:39.477Z,95.80
2022-11-16T19:26:06.870Z,95.80
2022-11-16T19:28:37.690Z,95.80
2022-11-16T19:31:11.428Z,95.90
2022-11-16T19:33:39.000Z,95.90
2022-11-16T19:36:10.072Z,96.00
2022-11-16T19:38:36.941Z,96.00
2022-11-16T19:41:04.010Z,96.10
2022-11-16T19:43:31.003Z,96.10
2022-11-16T19:46:01.950Z,96.20
2022-11-16T19:48:29.702Z,96.20
2022-11-16T19:50:56.602Z,96.30
2022-11-16T19:53:23.637Z,96.30
2022-11-16T19:55:54.805Z,96.30
2022-11-16T19:58:21.779Z,96.40
2022-11-16T20:00:48.747Z,96.20
2022-11-16T20:03:15.735Z,96.30
2022-11-16T20:05:43.108Z,96.20
2022-11-16T20:08:10.500Z,96.20
2022-11-16T20:10:37.422Z,96.10
2022-11-16T20:13:04.218Z,96.10
2022-11-16T20:15:31.032Z,96.10
2022-11-16T20:17:58.064Z,96.00
2022-11-16T20:20:24.811Z,96.00
2022-11-16T20:22:51.706Z,95.90
2022-11-16T20:25:19.305Z,95.90
2022-11-16T20:27:46.731Z,95.90
2022-11-16T20:30:13.651Z,95.90
2022-11-16T20:32:40.454Z,95.70
2022-11-16T20:35:07.443Z,95.90
2022-11-16T20:37:34.189Z,95.80
2022-11-16T20:40:12.569Z,95.90
2022-11-16T20:42:39.507Z,95.80
2022-11-16T20:45:07.059Z,95.70
2022-11-16T20:47:37.897Z,95.70
2022-11-16T20:50:06.859Z,95.50
2022-11-16T20:52:34.302Z,95.70
2022-11-16T20:55:03.838Z,95.70
2022-11-16T20:57:33.067Z,95.60
2022-11-16T20:59:59.899Z,95.60
2022-11-16T21:02:26.615Z,95.60
2022-11-16T21:04:58.937Z,95.50
2022-11-16T21:07:27.296Z,95.60
2022-11-16T21:10:12.863Z,95.60
2022-11-16T21:15:41.350Z,95.50
2022-11-16T21:18:08.392Z,95.50
2022-11-16T21:20:35.216Z,95.60
2022-11-16T21:23:09.843Z,95.60
2022-11-16T21:25:59.108Z,95.50
2022-11-16T21:28:28.611Z,95.50
2022-11-16T21:31:03.451Z,95.40
2022-11-16T21:33:30.390Z,95.40
2022-11-16T21:35:57.448Z,95.40
2022-11-16T21:38:27.675Z,95.50
2022-11-16T21:40:54.510Z,95.50
2022-11-16T21:43:21.270Z,95.40
2022-11-16T21:45:51.190Z,95.50
2022-11-16T21:48:22.068Z,95.60
2022-11-16T21:51:05.047Z,95.60
2022-11-16T21:53:35.594Z,95.70
2022-11-16T21:56:02.983Z,95.70
2022-11-16T21:58:29.743Z,95.70
2022-11-16T22:00:57.703Z,95.50
2022-11-16T22:03:25.679Z,95.70
2022-11-16T22:06:15.657Z,95.70
2022-11-16T22:08:44.736Z,95.50
2022-11-16T22:11:13.159Z,95.40
2022-11-16T22:13:42.474Z,95.40
2022-11-16T22:16:15.411Z,95.30
2022-11-16T22:18:42.650Z,95.20
2022-11-16T22:21:10.098Z,95.10
2022-11-16T22:23:37.672Z,95.10
2022-11-16T22:26:06.574Z,95.10
2022-11-16T22:28:33.697Z,95.00
2022-11-16T22:31:04.975Z,95.00
2022-11-16T22:33:32.901Z,94.90
2022-11-16T22:35:59.938Z,94.80
2022-11-16T22:38:26.982Z,94.70
2022-11-16T22:40:55.102Z,94.60
2022-11-16T22:43:23.424Z,94.60
2022-11-16T22:45:50.319Z,94.60
2022-11-16T22:48:17.137Z,94.30
2022-11-16T22:50:43.976Z,94.30
2022-11-16T22:53:11.256Z,94.30
2022-11-16T22:55:38.482Z,94.30
2022-11-16T22:58:05.659Z,94.30
2022-11-16T23:00:37.502Z,94.30
2022-11-16T23:03:07.746Z,94.30
2022-11-16T23:05:34.523Z,94.20
2022-11-16T23:08:01.237Z,94.30
2022-11-16T23:10:29.009Z,94.40
2022-11-16T23:13:14.656Z,94.40
2022-11-16T23:15:50.654Z,94.40
2022-11-16T23:18:19.716Z,94.30
2022-11-16T23:21:05.293Z,94.30
2022-11-16T23:23:50.991Z,94.30
2022-11-16T23:26:40.618Z,94.20
2022-11-16T23:29:08.354Z,94.30
2022-11-16T23:31:35.389Z,94.30
2022-11-16T23:34:02.350Z,94.30
2022-11-16T23:36:29.070Z,94.20
2022-11-16T23:38:55.808Z,94.20
2022-11-16T23:41:41.605Z,94.10
2022-11-16T23:44:08.538Z,94.00
2022-11-16T23:46:35.275Z,93.90
2022-11-16T23:49:02.168Z,94.20
2022-11-16T23:51:29.366Z,94.20
2022-11-16T23:53:56.529Z,94.20
2022-11-16T23:56:23.740Z,94.10
2022-11-16T23:58:50.631Z,94.30
